Time;durP1;ratioP1;P1;durP2;ratioP2;P2;SDS_P1;SDS_P2;PMS_P1;PMS_P2;Temp;Humidity;BMP_temperature;BMP_pressure;BME280_temperature;BME280_humidity;BME280_pressure;Samples;Min_cycle;Max_cycle;Signal;HPM_P1;HPM_P2
2021/07/28 00:00:42;;;;;;;50.15;26.83;;;26.60;51.00;;;;;;6231228;23;20023;-93
2021/07/28 00:03:08;;;;;;;39.55;22.05;;;26.50;51.00;;;;;;6230613;23;20004;-93
2021/07/28 00:05:35;;;;;;;22.05;13.50;;;26.50;51.10;;;;;;6254489;23;20079;-93
2021/07/28 00:08:01;;;;;;;11.98;8.15;;;26.40;51.20;;;;;;6252345;22;20070;-93
2021/07/28 00:10:29;;;;;;;13.13;6.85;;;26.30;51.30;;;;;;6231086;23;20065;-93
2021/07/28 00:12:55;;;;;;;9.20;5.75;;;26.20;51.30;;;;;;6234213;23;20079;-93
2021/07/28 00:15:21;;;;;;;5.72;4.70;;;26.10;51.40;;;;;;6232004;23;20008;-93
2021/07/28 00:17:50;;;;;;;5.97;4.45;;;26.10;51.60;;;;;;6233213;23;20011;-94
2021/07/28 00:20:24;;;;;;;7.10;4.85;;;26.00;51.60;;;;;;6230308;23;20083;-93
2021/07/28 00:25:38;;;;;;;5.88;4.05;;;25.90;51.80;;;;;;6254044;23;20331;-93
2021/07/28 00:28:04;;;;;;;4.97;4.22;;;25.80;51.90;;;;;;6226130;23;19996;-93
2021/07/28 00:30:31;;;;;;;4.90;4.00;;;25.80;52.10;;;;;;6227065;23;20003;-93
2021/07/28 00:32:57;;;;;;;4.82;4.07;;;25.70;52.20;;;;;;6225661;23;20321;-93
2021/07/28 00:35:23;;;;;;;7.45;4.22;;;25.70;52.40;;;;;;6226159;23;20000;-93
2021/07/28 00:37:49;;;;;;;4.85;3.95;;;25.60;52.50;;;;;;6226610;23;20088;-94
2021/07/28 00:40:16;;;;;;;6.35;4.35;;;25.60;52.70;;;;;;6229018;23;20382;-94
2021/07/28 00:42:42;;;;;;;4.75;4.20;;;25.50;52.80;;;;;;6227537;23;20027;-92
2021/07/28 00:45:08;;;;;;;6.65;3.70;;;25.50;53.00;;;;;;6227952;23;20008;-93
2021/07/28 00:47:34;;;;;;;4.10;3.75;;;25.40;53.20;;;;;;6252865;23;20060;-93
2021/07/28 00:50:02;;;;;;;4.22;3.75;;;25.40;53.30;;;;;;6254684;23;20008;-93
2021/07/28 00:52:29;;;;;;;5.63;3.97;;;25.30;53.40;;;;;;6229455;23;20000;-93
2021/07/28 00:54:55;;;;;;;5.05;3.78;;;25.30;53.60;;;;;;6230909;23;20489;-93
2021/07/28 00:57:21;;;;;;;3.88;3.47;;;25.20;54.00;;;;;;6226610;23;20008;-93
2021/07/28 00:59:48;;;;;;;4.78;4.00;;;25.20;53.90;;;;;;6226755;23;20008;-93
2021/07/28 01:02:14;;;;;;;5.43;3.70;;;25.20;54.00;;;;;;6227833;23;20001;-94
2021/07/28 01:04:40;;;;;;;4.68;3.97;;;25.10;54.20;;;;;;6228012;23;20437;-93
2021/07/28 01:07:07;;;;;;;4.82;4.28;;;25.00;54.30;;;;;;6229552;22;20000;-93
2021/07/28 01:09:33;;;;;;;4.57;4.05;;;25.00;54.50;;;;;;6254809;22;20015;-93
2021/07/28 01:12:01;;;;;;;4.72;3.90;;;24.90;54.60;;;;;;6232657;23;20001;-93
2021/07/28 01:14:27;;;;;;;4.78;3.80;;;24.90;54.80;;;;;;6232531;23;20075;-93
2021/07/28 01:16:55;;;;;;;7.63;4.25;;;24.90;55.00;;;;;;6227258;23;20000;-93
2021/07/28 01:19:29;;;;;;;8.43;3.95;;;24.80;55.20;;;;;;6228394;23;20092;-93
2021/07/28 01:22:00;;;;;;;4.43;4.03;;;24.80;55.30;;;;;;6233325;23;20034;-94
2021/07/28 01:24:27;;;;;;;5.82;4.25;;;24.70;55.50;;;;;;6235660;23;19996;-94
2021/07/28 01:26:55;;;;;;;7.35;4.95;;;24.70;55.80;;;;;;6235820;23;20315;-94
2021/07/28 01:29:24;;;;;;;6.82;5.70;;;24.60;55.90;;;;;;6236011;23;20004;-93
2021/07/28 01:31:53;;;;;;;6.07;5.10;;;24.60;56.10;;;;;;6236774;23;20011;-94
2021/07/28 01:34:20;;;;;;;5.10;4.60;;;24.50;56.20;;;;;;6262913;23;20075;-93
2021/07/28 01:36:48;;;;;;;7.32;5.47;;;24.50;56.30;;;;;;6234260;23;20328;-94
2021/07/28 01:39:14;;;;;;;8.25;5.13;;;24.50;56.60;;;;;;6234798;23;20000;-94
2021/07/28 01:41:40;;;;;;;6.93;5.70;;;24.50;56.90;;;;;;6233338;23;20091;-93
2021/07/28 01:44:06;;;;;;;6.45;5.78;;;24.50;57.20;;;;;;6261789;23;20424;-93
2021/07/28 01:46:32;;;;;;;6.40;5.68;;;24.40;57.40;;;;;;6234690;23;20019;-96
2021/07/28 01:48:58;;;;;;;6.13;5.25;;;24.40;57.80;;;;;;6235301;23;20060;-93
2021/07/28 01:51:24;;;;;;;7.30;5.85;;;24.40;58.00;;;;;;6234394;23;20071;-93
2021/07/28 01:53:50;;;;;;;6.72;5.90;;;24.30;58.20;;;;;;6234141;23;20087;-93
2021/07/28 01:56:17;;;;;;;10.43;7.25;;;24.30;58.40;;;;;;6233030;23;20007;-94
2021/07/28 01:58:52;;;;;;;8.20;6.90;;;24.30;58.80;;;;;;6236023;23;20000;-93
2021/07/28 02:01:19;;;;;;;9.73;5.97;;;24.20;59.00;;;;;;6236139;23;20063;-94
2021/07/28 02:03:45;;;;;;;7.38;6.32;;;24.20;59.20;;;;;;6262274;23;20004;-93
2021/07/28 02:06:10;;;;;;;7.38;5.78;;;24.20;59.30;;;;;;6260758;23;20016;-93
2021/07/28 02:08:36;;;;;;;6.93;6.20;;;24.20;59.40;;;;;;6249771;23;20024;-93
2021/07/28 02:11:02;;;;;;;6.85;6.15;;;24.10;59.40;;;;;;6263456;23;19992;-93
2021/07/28 02:13:28;;;;;;;7.85;5.93;;;24.10;59.50;;;;;;6267672;23;20007;-94
2021/07/28 02:15:54;;;;;;;6.40;5.80;;;24.10;59.60;;;;;;6269732;23;19988;-93
2021/07/28 02:18:20;;;;;;;5.85;4.82;;;24.10;59.50;;;;;;6270054;23;20011;-91
2021/07/28 02:20:46;;;;;;;9.02;6.10;;;24.10;59.60;;;;;;6267286;23;19988;-93
2021/07/28 02:23:12;;;;;;;8.25;5.55;;;24.10;59.70;;;;;;6262224;23;20004;-92
2021/07/28 02:25:38;;;;;;;9.30;5.90;;;24.10;59.70;;;;;;6262899;23;20076;-92
2021/07/28 02:28:04;;;;;;;8.90;6.45;;;24.10;59.70;;;;;;6264051;23;20001;-95
2021/07/28 02:30:30;;;;;;;6.65;5.95;;;24.10;59.90;;;;;;6263748;23;20016;-94
2021/07/28 02:32:56;;;;;;;6.35;5.63;;;24.10;59.80;;;;;;6259228;23;20040;-93
2021/07/28 02:35:24;;;;;;;6.38;5.72;;;24.10;59.90;;;;;;6261615;23;20023;-93
2021/07/28 02:37:53;;;;;;;6.82;5.32;;;24.20;59.90;;;;;;6264693;23;20035;-95
2021/07/28 02:40:20;;;;;;;6.20;5.60;;;24.20;60.00;;;;;;6264439;23;20002;-93
2021/07/28 02:42:50;;;;;;;6.68;5.97;;;24.10;59.90;;;;;;6261349;23;20079;-94
2021/07/28 02:45:16;;;;;;;7.57;6.15;;;24.10;59.90;;;;;;6262468;22;20004;-93
2021/07/28 02:47:42;;;;;;;6.72;5.85;;;24.20;60.00;;;;;;6259658;23;20008;-93
2021/07/28 02:50:08;;;;;;;6.22;5.63;;;24.20;60.00;;;;;;6261537;23;20031;-93
2021/07/28 02:52:34;;;;;;;8.05;5.65;;;24.20;60.00;;;;;;6261176;23;20001;-93
2021/07/28 02:55:05;;;;;;;6.85;5.88;;;24.20;60.10;;;;;;6258262;23;20007;-93
2021/07/28 02:57:32;;;;;;;7.13;6.13;;;24.20;60.10;;;;;;6256525;23;20023;-93
2021/07/28 02:59:57;;;;;;;6.43;5.80;;;24.20;60.10;;;;;;6258167;23;20102;-93
2021/07/28 03:02:23;;;;;;;6.70;5.63;;;24.20;60.10;;;;;;6255873;22;20402;-95
2021/07/28 03:04:49;;;;;;;6.53;5.93;;;24.20;60.20;;;;;;6256168;22;19992;-94
2021/07/28 03:07:15;;;;;;;7.13;5.88;;;24.20;60.20;;;;;;6257018;22;20438;-94
2021/07/28 03:09:44;;;;;;;7.00;6.30;;;24.20;60.20;;;;;;6233573;23;20019;-93
2021/07/28 03:12:14;;;;;;;6.75;6.00;;;24.20;60.20;;;;;;6232457;23;20092;-93
2021/07/28 03:14:40;;;;;;;7.90;6.18;;;24.20;60.20;;;;;;6235539;23;20028;-93
2021/07/28 03:17:06;;;;;;;7.15;6.43;;;24.20;60.20;;;;;;6232975;23;20007;-93
2021/07/28 03:19:32;;;;;;;7.18;6.00;;;24.20;60.30;;;;;;6258303;23;19996;-93
2021/07/28 03:21:57;;;;;;;7.97;6.32;;;24.30;60.30;;;;;;6230249;23;20027;-93
2021/07/28 03:24:24;;;;;;;7.45;6.70;;;24.30;60.30;;;;;;6232623;23;20020;-93
2021/07/28 03:26:50;;;;;;;9.80;6.70;;;24.30;60.30;;;;;;6231913;23;20011;-93
2021/07/28 03:29:22;;;;;;;7.90;7.10;;;24.40;60.40;;;;;;6230935;23;20437;-93
2021/07/28 03:31:49;;;;;;;7.10;6.38;;;24.40;60.40;;;;;;6234018;23;20445;-93
2021/07/28 03:34:15;;;;;;;7.80;6.50;;;24.40;60.40;;;;;;6232043;23;20003;-94
2021/07/28 03:36:40;;;;;;;8.85;6.75;;;24.40;60.30;;;;;;6230755;23;20004;-93
2021/07/28 03:39:06;;;;;;;6.97;6.20;;;24.40;60.30;;;;;;6227914;23;20084;-93
2021/07/28 03:41:34;;;;;;;10.98;7.05;;;24.40;60.30;;;;;;6257323;23;20039;-93
2021/07/28 03:44:00;;;;;;;9.20;6.85;;;24.40;60.30;;;;;;6231921;23;20010;-93
2021/07/28 03:46:29;;;;;;;8.63;7.75;;;24.40;60.40;;;;;;6231754;23;20339;-93
2021/07/28 03:48:54;;;;;;;10.15;8.70;;;24.40;60.40;;;;;;6239905;23;20026;-93
2021/07/28 03:51:20;;;;;;;9.82;8.82;;;24.40;60.80;;;;;;6237873;23;20005;-93
2021/07/28 03:53:46;;;;;;;10.85;8.02;;;24.30;61.20;;;;;;6239640;23;20000;-93
2021/07/28 03:56:12;;;;;;;11.02;8.15;;;24.20;61.20;;;;;;6237924;23;20001;-93
2021/07/28 03:58:38;;;;;;;9.60;8.45;;;24.20;61.30;;;;;;6237559;23;20071;-94
2021/07/28 04:01:04;;;;;;;9.00;7.60;;;24.20;61.60;;;;;;6241246;23;20299;-93
2021/07/28 04:03:30;;;;;;;7.82;6.60;;;24.20;61.70;;;;;;6237901;23;19996;-94
2021/07/28 04:05:56;;;;;;;9.90;7.78;;;24.20;61.70;;;;;;6233746;23;20067;-94
2021/07/28 04:08:22;;;;;;;11.52;7.25;;;24.30;61.80;;;;;;6262458;22;20016;-93
2021/07/28 04:10:48;;;;;;;9.15;7.25;;;24.40;61.90;;;;;;6236218;23;19996;-93
2021/07/28 04:13:16;;;;;;;8.43;7.55;;;24.40;61.80;;;;;;6233705;23;20003;-94
2021/07/28 04:15:44;;;;;;;8.38;7.47;;;24.50;61.90;;;;;;6235861;23;20008;-93
2021/07/28 04:18:10;;;;;;;11.73;7.53;;;24.50;62.10;;;;;;6237911;23;20031;-93
2021/07/28 04:20:36;;;;;;;11.05;6.70;;;24.50;62.00;;;;;;6234429;23;20000;-94
2021/07/28 04:23:02;;;;;;;7.03;6.32;;;24.50;62.00;;;;;;6233722;23;20424;-94
2021/07/28 04:25:31;;;;;;;6.45;5.85;;;24.50;61.90;;;;;;6233607;23;20005;-94
2021/07/28 04:27:56;;;;;;;6.75;5.90;;;24.60;61.80;;;;;;6234517;23;19996;-93
2021/07/28 04:30:22;;;;;;;8.88;6.78;;;24.70;61.70;;;;;;6232074;23;20028;-94
2021/07/28 04:32:48;;;;;;;8.75;6.97;;;24.80;61.70;;;;;;6230188;23;20427;-93
2021/07/28 04:35:15;;;;;;;8.27;6.90;;;24.90;61.50;;;;;;6229392;23;20486;-93
2021/07/28 04:37:41;;;;;;;7.65;6.85;;;24.90;61.30;;;;;;6234001;23;20007;-93
2021/07/28 04:40:07;;;;;;;8.93;7.32;;;25.00;61.50;;;;;;6229826;23;19997;-93
2021/07/28 04:42:33;;;;;;;10.00;7.72;;;25.00;61.60;;;;;;6223794;23;20078;-93
2021/07/28 04:44:59;;;;;;;9.05;8.13;;;25.10;61.80;;;;;;6222761;23;19996;-92
2021/07/28 04:47:24;;;;;;;9.70;7.28;;;25.20;61.70;;;;;;6222844;23;20075;-93
2021/07/28 04:49:51;;;;;;;7.65;6.80;;;25.20;61.80;;;;;;6223518;23;20114;-93
2021/07/28 04:52:21;;;;;;;8.82;7.90;;;25.20;61.80;;;;;;6222982;23;20502;-93
2021/07/28 04:54:47;;;;;;;7.68;6.95;;;25.20;61.70;;;;;;6222050;23;19996;-92
2021/07/28 04:57:12;;;;;;;11.98;7.40;;;25.30;61.60;;;;;;6221949;23;20000;-93
2021/07/28 04:59:38;;;;;;;9.02;6.80;;;25.30;61.40;;;;;;6222463;23;20074;-92
2021/07/28 05:02:04;;;;;;;14.25;7.13;;;25.40;61.40;;;;;;6222393;23;20023;-93
2021/07/28 05:04:30;;;;;;;9.90;7.10;;;25.50;61.30;;;;;;6250566;23;20031;-93
2021/07/28 05:06:55;;;;;;;9.85;7.45;;;25.60;61.30;;;;;;6247089;22;20012;-93
2021/07/28 05:09:21;;;;;;;9.88;7.25;;;25.70;61.30;;;;;;6247375;22;20040;-94
2021/07/28 05:11:47;;;;;;;10.40;7.28;;;25.80;61.30;;;;;;6222332;23;20368;-94
2021/07/28 05:14:20;;;;;;;8.65;7.03;;;25.90;61.20;;;;;;6222624;23;20000;-95
2021/07/28 05:16:45;;;;;;;;;;;26.00;61.70;;;;;;6250764;23;20073;-94
2021/07/28 05:19:11;;;;;;;9.05;7.60;;;26.10;61.30;;;;;;6228240;23;20302;-94
2021/07/28 05:21:40;;;;;;;9.93;7.55;;;26.20;60.80;;;;;;6231690;23;20000;-94
2021/07/28 05:24:05;;;;;;;8.68;7.32;;;26.30;60.70;;;;;;6225931;23;20359;-94
2021/07/28 05:26:31;;;;;;;12.70;6.88;;;26.40;60.60;;;;;;6222910;23;20039;-94
2021/07/28 05:28:57;;;;;;;10.63;7.75;;;26.50;60.50;;;;;;6223436;23;20042;-94
2021/07/28 05:31:23;;;;;;;8.88;7.82;;;26.70;60.40;;;;;;6223771;23;20025;-93
2021/07/28 05:33:48;;;;;;;12.68;8.77;;;26.80;60.30;;;;;;6223725;23;20004;-95
2021/07/28 05:36:14;;;;;;;9.20;7.95;;;26.80;60.00;;;;;;6227914;23;20004;-91
2021/07/28 05:38:40;;;;;;;10.18;8.00;;;26.90;59.90;;;;;;6237165;23;20011;-92
2021/07/28 05:41:06;;;;;;;11.40;8.13;;;26.90;59.90;;;;;;6237436;23;20477;-93
2021/07/28 05:43:31;;;;;;;12.35;8.65;;;26.90;59.90;;;;;;6256121;23;20000;-94
2021/07/28 05:45:57;;;;;;;10.73;8.95;;;27.00;60.00;;;;;;6223919;23;20004;-94
2021/07/28 05:48:23;;;;;;;10.32;8.55;;;27.00;60.10;;;;;;6222283;23;20003;-93
2021/07/28 05:50:50;;;;;;;12.02;9.00;;;27.10;60.10;;;;;;6223449;23;20015;-94
2021/07/28 05:53:16;;;;;;;11.02;9.30;;;27.10;60.10;;;;;;6228154;23;20004;-94
2021/07/28 05:55:44;;;;;;;11.73;9.35;;;27.20;59.90;;;;;;6229273;23;20011;-93
2021/07/28 05:58:10;;;;;;;9.52;8.20;;;27.30;59.70;;;;;;6226492;23;20011;-93
2021/07/28 06:00:38;;;;;;;11.15;8.85;;;27.40;59.60;;;;;;6250929;23;20355;-96
2021/07/28 06:03:03;;;;;;;10.50;8.18;;;27.40;59.50;;;;;;6251987;23;20000;-93
2021/07/28 06:05:32;;;;;;;11.77;8.00;;;27.50;59.50;;;;;;6228319;23;20157;-94
2021/07/28 06:08:00;;;;;;;13.48;8.45;;;27.50;59.40;;;;;;6234992;23;20016;-94
2021/07/28 06:10:28;;;;;;;10.82;9.23;;;27.50;59.40;;;;;;6256659;23;20012;-95
2021/07/28 06:12:54;;;;;;;10.65;8.98;;;27.50;59.20;;;;;;6258929;23;20004;-94
2021/07/28 06:15:30;;;;;;;11.68;9.13;;;27.50;59.10;;;;;;6257371;23;20019;-94
2021/07/28 06:18:07;;;;;;;9.85;8.00;;;27.40;58.90;;;;;;6252900;23;20015;-95
2021/07/28 06:20:35;;;;;;;13.68;8.20;;;27.30;58.70;;;;;;6254046;23;20004;-94
2021/07/28 06:23:06;;;;;;;14.85;8.40;;;27.30;58.80;;;;;;6253713;23;19996;-94
2021/07/28 06:25:32;;;;;;;9.27;8.30;;;27.20;58.90;;;;;;6249408;23;20015;-93
2021/07/28 06:28:06;;;;;;;11.60;10.23;;;27.10;58.90;;;;;;6256286;23;20079;-93
2021/07/28 06:30:36;;;;;;;23.90;14.93;;;27.00;59.00;;;;;;6255939;22;20080;-94
2021/07/28 06:33:02;;;;;;;21.13;16.50;;;26.70;60.30;;;;;;6256494;23;20004;-94
2021/07/28 06:35:35;;;;;;;19.38;14.57;;;26.40;62.30;;;;;;6284602;22;20067;-94
2021/07/28 06:38:02;;;;;;;14.25;11.52;;;26.10;63.70;;;;;;6255840;23;20000;-94
2021/07/28 06:40:36;;;;;;;12.95;11.65;;;25.80;63.60;;;;;;6254942;23;20056;-94
2021/07/28 06:43:13;;;;;;;;;;;25.60;64.50;;;;;;6258105;23;19996;-94
2021/07/28 06:45:47;;;;;;;14.23;10.65;;;25.30;66.60;;;;;;6261558;23;19915;-94
2021/07/28 06:48:38;;;;;;;;;;;25.20;66.60;;;;;;6268809;23;20004;-94
2021/07/28 06:51:41;;;;;;;19.25;12.93;;;25.00;68.80;;;;;;6266829;22;19907;-94
2021/07/28 06:54:09;;;;;;;20.30;12.20;;;24.80;68.90;;;;;;6254033;23;20004;-95
2021/07/28 06:56:38;;;;;;;13.82;9.85;;;24.60;70.20;;;;;;6257030;23;20004;-94
2021/07/28 06:59:10;;;;;;;12.98;10.80;;;24.40;71.80;;;;;;6258253;23;20008;-94
2021/07/28 07:01:44;;;;;;;10.80;8.32;;;24.10;74.00;;;;;;6261022;23;20490;-94
2021/07/28 07:04:13;;;;;;;9.93;8.63;;;23.80;75.00;;;;;;6260727;23;20062;-95
2021/07/28 07:06:56;;;;;;;7.50;6.80;;;23.50;77.10;;;;;;6259038;23;20017;-95
2021/07/28 07:09:27;;;;;;;10.88;5.78;;;23.10;82.60;;;;;;6241138;22;20012;-95
2021/07/28 07:11:53;;;;;;;6.72;4.38;;;22.80;83.60;;;;;;6237117;23;20005;-95
2021/07/28 07:14:21;;;;;;;11.20;4.30;;;22.10;89.50;;;;;;6238564;23;20024;-96
2021/07/28 07:16:47;;;;;;;6.18;3.83;;;21.10;93.30;;;;;;6232889;23;20004;-94
2021/07/28 07:19:13;;;;;;;4.38;3.08;;;20.40;96.70;;;;;;6234953;23;20068;-93
2021/07/28 07:21:39;;;;;;;4.05;2.97;;;20.00;98.60;;;;;;6235421;23;20064;-94
2021/07/28 07:24:07;;;;;;;6.28;3.58;;;19.70;99.90;;;;;;6235304;23;20004;-94
2021/07/28 07:26:33;;;;;;;5.05;3.67;;;19.60;99.90;;;;;;6233316;23;20054;-94
2021/07/28 07:29:10;;;;;;;5.28;3.60;;;19.60;99.90;;;;;;6234065;23;20012;-96
2021/07/28 07:31:36;;;;;;;6.65;4.78;;;19.70;99.90;;;;;;6235148;23;19997;-95
2021/07/28 07:34:02;;;;;;;6.10;4.93;;;19.90;99.90;;;;;;6239334;23;20004;-94
2021/07/28 07:36:31;;;;;;;6.63;4.40;;;20.00;99.90;;;;;;6237587;23;20034;-95
2021/07/28 07:38:59;;;;;;;8.02;4.95;;;20.10;99.90;;;;;;6236519;23;20008;-94
2021/07/28 07:41:25;;;;;;;6.07;4.40;;;20.20;99.90;;;;;;6239760;23;20094;-94
2021/07/28 07:43:57;;;;;;;8.10;5.35;;;20.30;99.90;;;;;;6241330;23;20008;-94
2021/07/28 07:46:23;;;;;;;6.30;5.60;;;20.40;99.90;;;;;;6241259;23;20058;-95
2021/07/28 07:48:54;;;;;;;6.68;5.22;;;20.50;99.90;;;;;;6239687;23;20011;-94
2021/07/28 07:51:20;;;;;;;8.50;5.45;;;20.50;99.90;;;;;;6238836;23;20019;-94
2021/07/28 07:53:49;;;;;;;6.68;5.78;;;20.60;99.90;;;;;;6235949;23;20008;-94
2021/07/28 07:56:15;;;;;;;9.85;6.75;;;20.70;99.90;;;;;;6237832;23;20010;-95
2021/07/28 07:58:41;;;;;;;7.28;6.18;;;20.80;99.90;;;;;;6232670;23;20000;-95
2021/07/28 08:01:07;;;;;;;7.95;6.93;;;20.90;99.90;;;;;;6234605;23;20023;-94
2021/07/28 08:03:36;;;;;;;7.00;5.80;;;21.00;99.90;;;;;;6233466;23;20120;-95
2021/07/28 08:06:02;;;;;;;10.00;5.82;;;21.20;99.90;;;;;;6234440;23;20016;-94
2021/07/28 08:08:28;;;;;;;7.07;6.15;;;21.40;99.90;;;;;;6235863;23;20087;-95
2021/07/28 08:10:57;;;;;;;8.73;7.07;;;21.60;99.90;;;;;;6239581;23;20000;-95
2021/07/28 08:13:23;;;;;;;10.13;7.43;;;21.70;99.90;;;;;;6234743;23;20066;-95
2021/07/28 08:15:50;;;;;;;13.07;8.95;;;21.90;99.90;;;;;;6233361;23;20011;-94
2021/07/28 08:18:19;;;;;;;39.05;18.42;;;22.00;99.90;;;;;;6260089;23;20027;-95
2021/07/28 08:20:48;;;;;;;56.30;24.17;;;22.20;99.90;;;;;;6235398;23;20028;-94
2021/07/28 08:23:16;;;;;;;52.17;24.52;;;22.30;99.90;;;;;;6239429;22;20014;-95
2021/07/28 08:25:49;;;;;;;38.00;21.45;;;22.50;99.90;;;;;;6244165;23;20071;-95
2021/07/28 08:28:21;;;;;;;37.72;19.85;;;22.60;99.90;;;;;;6243851;23;20027;-95
2021/07/28 08:30:58;;;;;;;21.00;13.40;;;22.90;99.90;;;;;;6239867;23;19992;-95
2021/07/28 08:33:27;;;;;;;15.30;9.82;;;23.10;99.90;;;;;;6241455;23;20123;-95
2021/07/28 08:35:57;;;;;;;11.30;8.32;;;23.30;99.90;;;;;;6237116;23;19992;-95
2021/07/28 08:38:25;;;;;;;11.23;8.10;;;23.40;99.90;;;;;;6231782;23;20524;-95
2021/07/28 08:41:00;;;;;;;10.20;7.95;;;23.60;99.90;;;;;;6234895;23;20058;-95
2021/07/28 08:43:29;;;;;;;7.95;7.15;;;23.70;99.90;;;;;;6221314;23;20271;-94
2021/07/28 08:45:57;;;;;;;9.13;7.65;;;23.90;99.90;;;;;;6247792;23;20423;-95
2021/07/28 08:48:24;;;;;;;8.90;7.28;;;24.00;99.90;;;;;;6221491;23;20103;-95
2021/07/28 08:50:53;;;;;;;7.93;7.13;;;24.10;99.90;;;;;;6221236;23;20052;-96
2021/07/28 08:53:19;;;;;;;7.82;6.90;;;24.20;99.90;;;;;;6221465;23;20011;-96
2021/07/28 08:55:50;;;;;;;10.25;7.03;;;24.40;99.90;;;;;;6222027;23;20004;-95
2021/07/28 08:58:23;;;;;;;11.57;7.85;;;24.50;99.90;;;;;;6221962;23;20007;-95
2021/07/28 09:01:20;;;;;;;7.95;6.88;;;24.70;99.90;;;;;;6222487;23;20335;-95
2021/07/28 09:03:46;;;;;;;8.20;6.75;;;24.80;99.90;;;;;;6220735;23;20058;-94
2021/07/28 09:06:28;;;;;;;8.45;7.55;;;25.00;99.90;;;;;;6247681;23;20111;-94
2021/07/28 09:09:04;;;;;;;6.60;6.00;;;25.20;99.90;;;;;;6238244;22;20019;-94
2021/07/28 09:11:30;;;;;;;7.35;6.43;;;25.30;99.90;;;;;;6251718;22;20000;-94
2021/07/28 09:14:19;;;;;;;8.52;5.63;;;25.50;99.90;;;;;;6252243;22;20061;-94
2021/07/28 09:16:48;;;;;;;7.43;6.03;;;25.70;99.90;;;;;;6279329;22;20030;-95
2021/07/28 09:19:14;;;;;;;7.70;6.70;;;25.90;99.90;;;;;;6251101;22;20362;-94
2021/07/28 09:21:45;;;;;;;9.13;7.28;;;26.00;99.90;;;;;;6251653;22;20060;-93
2021/07/28 09:24:15;;;;;;;15.50;7.70;;;26.20;99.90;;;;;;6251776;22;19999;-94
2021/07/28 09:29:25;;;;;;;7.25;6.38;;;26.50;99.90;;;;;;6279473;22;20000;-95
2021/07/28 09:32:38;;;;;;;;;;;;;;;;;;;;;
2021/07/28 09:35:46;;;;;;;19.20;13.05;;;27.00;99.90;;;;;;6282572;22;20035;-93
2021/07/28 09:38:48;;;;;;;19.88;14.15;;;27.00;98.20;;;;;;6248921;22;20000;-95
2021/07/28 09:41:45;;;;;;;18.23;12.70;;;27.10;97.00;;;;;;6159636;23;20011;-95
2021/07/28 09:44:24;;;;;;;15.27;9.15;;;27.20;97.20;;;;;;6159637;23;20008;-93
2021/07/28 09:47:25;;;;;;;10.60;8.93;;;27.30;97.30;;;;;;6159733;23;20012;-94
2021/07/28 09:50:02;;;;;;;9.55;8.55;;;27.50;96.70;;;;;;6176748;23;20042;-93
2021/07/28 09:53:05;;;;;;;8.93;7.90;;;27.60;96.70;;;;;;6159670;23;20031;-92
2021/07/28 09:55:43;;;;;;;9.32;7.85;;;27.70;95.30;;;;;;6212324;22;20004;-94
2021/07/28 09:58:17;;;;;;;7.75;7.05;;;27.70;93.50;;;;;;6250461;22;20007;-92
2021/07/28 10:00:43;;;;;;;7.88;6.65;;;27.70;94.00;;;;;;6251100;22;20007;-92
2021/07/28 10:03:12;;;;;;;7.82;6.97;;;27.70;94.30;;;;;;6250818;22;20004;-93
2021/07/28 10:05:41;;;;;;;8.52;7.28;;;27.90;93.90;;;;;;6250555;22;20012;-93
2021/07/28 10:08:40;;;;;;;7.82;7.13;;;27.90;92.90;;;;;;6251233;22;20008;-94
2021/07/28 10:11:13;;;;;;;7.93;7.22;;;28.00;92.70;;;;;;6245166;22;20023;-93
2021/07/28 10:13:51;;;;;;;;;;;;;;;;;;;;;
2021/07/28 10:16:43;;;;;;;9.10;8.10;;;28.10;89.50;;;;;;6283286;22;20031;-94
2021/07/28 10:19:16;;;;;;;8.02;7.32;;;28.20;88.00;;;;;;6253366;22;20082;-93
2021/07/28 10:21:42;;;;;;;8.48;7.78;;;28.30;88.10;;;;;;6258991;22;20004;-94
2021/07/28 10:24:15;;;;;;;9.18;8.38;;;28.40;86.50;;;;;;6261722;22;19996;-93
2021/07/28 10:27:12;;;;;;;8.88;8.07;;;28.50;84.40;;;;;;6265372;22;20007;-93
2021/07/28 10:29:41;;;;;;;9.05;8.18;;;28.60;80.80;;;;;;6262393;22;20063;-93
2021/07/28 10:32:07;;;;;;;9.88;8.93;;;28.60;82.40;;;;;;6258892;22;20011;-94
2021/07/28 10:34:39;;;;;;;10.43;9.23;;;28.70;80.60;;;;;;6257801;22;20003;-93
2021/07/28 10:37:07;;;;;;;9.18;7.82;;;28.70;79.60;;;;;;6255980;22;20005;-96
2021/07/28 10:39:41;;;;;;;8.77;7.88;;;28.80;80.40;;;;;;6256802;22;20057;-93
2021/07/28 10:53:02;;;;;;;8.35;7.63;;;29.50;77.50;;;;;;6284641;22;20011;-93
2021/07/28 11:13:26;;;;;;;8.65;7.82;;;30.20;66.80;;;;;;6103016;23;20010;-90
2021/07/28 11:16:58;;;;;;;13.18;8.45;;;30.20;72.30;;;;;;6073831;23;20058;-89
2021/07/28 11:19:44;;;;;;;11.73;10.52;;;30.30;67.20;;;;;;6167978;23;20004;-90
2021/07/28 11:22:10;;;;;;;10.55;9.48;;;30.30;69.50;;;;;;6222503;23;20040;-90
2021/07/28 11:24:36;;;;;;;11.55;8.52;;;30.20;69.70;;;;;;6219271;23;20040;-89
2021/07/28 11:27:10;;;;;;;11.60;9.98;;;30.20;70.20;;;;;;6219593;23;20016;-91
2021/07/28 11:29:38;;;;;;;10.35;9.25;;;30.20;66.60;;;;;;6219886;23;20007;-91
2021/07/28 11:32:07;;;;;;;10.43;9.48;;;30.30;68.40;;;;;;6219655;23;20331;-90
2021/07/28 11:34:55;;;;;;;11.90;8.38;;;30.20;68.10;;;;;;6219442;23;20000;-89
2021/07/28 11:37:22;;;;;;;9.38;8.45;;;30.20;67.10;;;;;;6218194;23;20023;-91
2021/07/28 11:39:51;;;;;;;9.77;8.80;;;30.20;68.50;;;;;;6218901;23;20004;-91
2021/07/28 11:42:18;;;;;;;10.35;9.35;;;30.20;68.20;;;;;;6218488;23;20004;-91
2021/07/28 11:44:47;;;;;;;8.52;7.72;;;30.20;68.30;;;;;;6218963;23;20435;-91
2021/07/28 11:47:22;;;;;;;9.82;8.93;;;30.20;68.90;;;;;;6217558;23;20065;-92
2021/07/28 11:50:08;;;;;;;11.40;8.68;;;30.40;69.20;;;;;;6218537;23;20004;-91
2021/07/28 11:52:49;;;;;;;9.15;8.30;;;30.40;69.00;;;;;;6218943;23;20003;-90
2021/07/28 11:55:25;;;;;;;9.77;8.85;;;30.60;69.60;;;;;;6217281;23;20000;-90
2021/07/28 11:57:50;;;;;;;9.65;8.60;;;30.70;69.10;;;;;;6218907;23;20420;-89
2021/07/28 12:00:31;;;;;;;9.38;8.57;;;30.70;68.90;;;;;;6218377;23;20028;-90
2021/07/28 12:03:26;;;;;;;9.20;8.40;;;30.80;67.70;;;;;;6245839;23;20446;-89
2021/07/28 12:06:04;;;;;;;8.70;7.82;;;30.80;68.20;;;;;;6220860;23;20009;-88
2021/07/28 12:08:34;;;;;;;11.05;9.82;;;31.00;68.40;;;;;;6220496;23;20000;-90
2021/07/28 12:11:11;;;;;;;9.90;8.90;;;31.00;67.80;;;;;;6214454;23;20038;-90
2021/07/28 12:13:47;;;;;;;10.45;9.50;;;31.10;66.80;;;;;;6220806;23;20000;-91
2021/07/28 12:16:13;;;;;;;10.48;9.48;;;31.20;67.40;;;;;;6220650;23;20450;-91
2021/07/28 12:18:43;;;;;;;10.32;9.13;;;31.30;66.60;;;;;;6221121;23;20055;-90
2021/07/28 12:21:09;;;;;;;11.07;8.57;;;31.50;66.60;;;;;;6220841;23;20004;-91
2021/07/28 12:23:35;;;;;;;10.50;7.85;;;31.70;66.40;;;;;;6220680;23;20008;-90
2021/07/28 12:26:01;;;;;;;11.05;8.57;;;31.90;65.90;;;;;;6220578;23;20057;-90
2021/07/28 12:28:54;;;;;;;8.77;7.75;;;32.20;65.20;;;;;;6220309;23;20000;-89
2021/07/28 12:31:29;;;;;;;9.77;8.85;;;32.60;63.90;;;;;;6217442;23;20003;-90
2021/07/28 12:34:20;;;;;;;9.75;8.70;;;32.90;60.10;;;;;;6221965;23;20027;-90
2021/07/28 12:36:52;;;;;;;9.85;8.85;;;33.10;60.00;;;;;;6220580;23;20004;-90
2021/07/28 12:39:18;;;;;;;8.77;7.27;;;33.30;61.10;;;;;;6220231;23;20004;-90
2021/07/28 12:41:43;;;;;;;8.90;8.07;;;33.60;61.00;;;;;;6219698;23;20446;-92
2021/07/28 12:44:31;;;;;;;9.32;8.40;;;33.90;60.70;;;;;;6219690;23;20000;-89
2021/07/28 12:47:00;;;;;;;8.57;7.68;;;34.20;60.60;;;;;;6243962;23;20008;-90
2021/07/28 12:49:40;;;;;;;7.53;6.82;;;34.60;60.30;;;;;;6218180;23;20046;-90
2021/07/28 12:52:06;;;;;;;8.70;7.72;;;34.90;59.30;;;;;;6195166;23;20008;-89
2021/07/28 12:54:32;;;;;;;9.30;8.32;;;35.30;58.40;;;;;;6220442;23;20434;-90
2021/07/28 12:56:58;;;;;;;10.35;7.95;;;35.50;56.20;;;;;;6219947;23;20005;-90
2021/07/28 12:59:24;;;;;;;8.43;7.68;;;35.50;55.90;;;;;;6219520;23;20324;-90
2021/07/28 13:01:50;;;;;;;7.75;6.55;;;35.60;57.00;;;;;;6219213;23;20031;-91
2021/07/28 13:04:18;;;;;;;7.93;7.13;;;35.80;55.70;;;;;;6219257;23;20024;-90
2021/07/28 13:06:50;;;;;;;8.45;6.55;;;36.10;54.60;;;;;;6221263;23;20012;-91
2021/07/28 13:09:18;;;;;;;;;;;36.20;51.70;;;;;;6196571;22;20023;-91
2021/07/28 13:11:44;;;;;;;6.38;5.72;;;36.30;48.50;;;;;;6219559;23;19986;-89
2021/07/28 13:14:09;;;;;;;5.90;5.25;;;36.40;51.40;;;;;;6194916;23;20434;-90
2021/07/28 13:16:37;;;;;;;7.43;5.82;;;36.70;51.60;;;;;;6219532;23;20078;-90
2021/07/28 13:19:06;;;;;;;6.10;5.50;;;37.00;49.90;;;;;;6219169;23;20087;-91
2021/07/28 13:21:31;;;;;;;6.97;6.03;;;37.30;49.50;;;;;;6219982;23;20022;-91
2021/07/28 13:24:02;;;;;;;6.95;6.20;;;37.50;48.60;;;;;;6248119;23;20020;-89
2021/07/28 13:26:30;;;;;;;6.68;6.07;;;37.50;48.00;;;;;;6220369;23;20040;-91
2021/07/28 13:28:55;;;;;;;6.53;5.65;;;37.50;47.60;;;;;;6220918;23;20027;-90
2021/07/28 13:31:21;;;;;;;7.13;6.50;;;37.60;48.30;;;;;;6220258;23;20432;-91
2021/07/28 13:33:49;;;;;;;6.63;5.75;;;37.80;47.70;;;;;;6194891;23;20428;-90